createdAt,value
2022-10-18T00:00:44.636Z,21.09
2022-10-18T00:01:57.050Z,21.09
2022-10-18T00:03:00.663Z,21.09
2022-10-18T00:04:13.119Z,21.09
2022-10-18T00:05:26.682Z,21.09
2022-10-18T00:06:29.166Z,21.1
2022-10-18T00:07:42.161Z,21.1
2022-10-18T00:08:54.545Z,21.09
2022-10-18T00:10:07.912Z,21.1
2022-10-18T00:11:10.365Z,21.09
2022-10-18T00:12:43.181Z,21.09
2022-10-18T00:13:35.774Z,21.1
2022-10-18T00:14:38.217Z,21.07
2022-10-18T00:15:52.173Z,21.09
2022-10-18T00:17:04.553Z,21.09
2022-10-18T00:18:17.662Z,21.11
2022-10-18T00:19:20.086Z,21.11
2022-10-18T00:20:33.138Z,21.11
2022-10-18T00:21:46.486Z,21.1
2022-10-18T00:22:49.682Z,21.07
2022-10-18T00:24:02.065Z,21.07
2022-10-18T00:25:15.151Z,21.06
2022-10-18T00:26:17.613Z,21.06
2022-10-18T00:27:30.829Z,21.09
2022-10-18T00:28:43.316Z,21.06
2022-10-18T00:29:56.663Z,21.04
2022-10-18T00:31:19.015Z,21.06
2022-10-18T00:32:12.187Z,21.04
2022-10-18T00:33:34.504Z,21.07
2022-10-18T00:34:27.639Z,21.09
2022-10-18T00:35:39.991Z,21.06
2022-10-18T00:36:53.202Z,21.06
2022-10-18T00:38:05.645Z,21.06
2022-10-18T00:39:09.196Z,21.06
2022-10-18T00:40:21.596Z,21.07
2022-10-18T00:41:35.159Z,21.04
2022-10-18T00:42:37.628Z,21.07
2022-10-18T00:43:50.673Z,21.06
2022-10-18T00:45:03.051Z,21.07
2022-10-18T00:46:16.225Z,21.07
2022-10-18T00:47:18.696Z,21.04
2022-10-18T00:48:31.671Z,21.03
2022-10-18T00:50:04.069Z,21.04
2022-10-18T00:50:47.638Z,21.04
2022-10-18T00:52:00.181Z,21.06
2022-10-18T00:53:13.668Z,21.04
2022-10-18T00:54:16.246Z,21.04
2022-10-18T00:55:29.659Z,21.06
2022-10-18T00:56:42.137Z,21.04
2022-10-18T00:58:57.402Z,21.06
2022-10-18T01:00:10.641Z,21.03
2022-10-18T01:01:25.811Z,21.04
2022-10-18T01:02:31.924Z,21.06
2022-10-18T01:03:34.607Z,21.04
2022-10-18T01:04:47.662Z,21.03
2022-10-18T01:06:00.072Z,21.04
2022-10-18T01:07:13.174Z,21.03
2022-10-18T01:08:15.890Z,21.04
2022-10-18T01:09:29.160Z,21.01
2022-10-18T01:10:41.559Z,21.01
2022-10-18T01:11:54.678Z,21.01
2022-10-18T01:12:57.170Z,21.03
2022-10-18T01:14:30.175Z,21.0
2022-10-18T01:15:22.750Z,21.01
2022-10-18T01:16:25.242Z,21.03
2022-10-18T01:17:39.089Z,21.01
2022-10-18T01:18:51.691Z,21.04
2022-10-18T01:20:04.778Z,21.03
2022-10-18T01:21:07.279Z,21.01
2022-10-18T01:22:20.669Z,21.03
2022-10-18T01:23:33.064Z,21.03
2022-10-18T01:24:36.348Z,21.03
2022-10-18T01:25:48.743Z,21.03
2022-10-18T01:27:02.184Z,21.0
2022-10-18T01:28:04.709Z,21.01
2022-10-18T01:29:18.336Z,21.01
2022-10-18T01:30:30.733Z,21.01
2022-10-18T01:31:44.179Z,21.01
2022-10-18T01:32:46.649Z,21.0
2022-10-18T01:33:59.689Z,21.0
2022-10-18T01:35:12.087Z,21.0
2022-10-18T01:36:15.307Z,20.97
2022-10-18T01:37:27.941Z,20.97
2022-10-18T01:38:41.672Z,20.99
2022-10-18T01:39:54.169Z,20.97
2022-10-18T01:40:57.668Z,20.96
2022-10-18T01:42:10.163Z,20.95
2022-10-18T01:43:23.181Z,20.96
2022-10-18T01:44:25.673Z,20.96
2022-10-18T01:45:39.182Z,20.96
2022-10-18T01:46:51.623Z,20.96
2022-10-18T01:47:54.702Z,20.93
2022-10-18T01:49:07.207Z,20.95
2022-10-18T01:50:20.149Z,20.95
2022-10-18T01:51:32.618Z,20.95
2022-10-18T01:52:36.172Z,20.96
2022-10-18T01:53:48.599Z,20.95
2022-10-18T01:55:01.646Z,20.96
2022-10-18T01:56:04.117Z,20.96
2022-10-18T01:57:17.188Z,20.93
2022-10-18T01:58:29.619Z,20.95
2022-10-18T01:59:42.698Z,20.95
2022-10-18T02:00:45.167Z,20.95
2022-10-18T02:01:58.173Z,20.95
2022-10-18T02:03:10.575Z,20.96
2022-10-18T02:04:23.669Z,20.93
2022-10-18T02:05:26.253Z,20.9
2022-10-18T02:06:39.792Z,20.95
2022-10-18T02:08:00.321Z,20.93
2022-10-18T02:09:02.677Z,20.95
2022-10-18T02:10:05.193Z,20.93
2022-10-18T02:11:18.680Z,20.93
2022-10-18T02:12:31.397Z,20.92
2022-10-18T02:13:34.689Z,20.95
2022-10-18T02:14:47.203Z,20.93
2022-10-18T02:16:01.214Z,20.92
2022-10-18T02:17:13.634Z,20.93
2022-10-18T02:18:17.491Z,20.95
2022-10-18T02:19:29.903Z,20.93
2022-10-18T02:20:43.204Z,20.93
2022-10-18T02:21:45.679Z,20.93
2022-10-18T02:22:58.679Z,20.9
2022-10-18T02:24:11.083Z,20.93
2022-10-18T02:25:24.187Z,20.93
2022-10-18T02:26:26.683Z,20.92
2022-10-18T02:27:39.666Z,20.92
2022-10-18T02:28:52.045Z,20.93
2022-10-18T02:29:55.172Z,20.9
2022-10-18T02:31:07.559Z,20.92
2022-10-18T02:32:20.672Z,20.9
2022-10-18T02:33:33.072Z,20.9
2022-10-18T02:34:36.173Z,20.92
2022-10-18T02:35:58.506Z,20.9
2022-10-18T02:37:01.688Z,20.9
2022-10-18T02:38:04.189Z,20.9
2022-10-18T02:39:17.194Z,20.88
2022-10-18T02:40:29.665Z,20.92
2022-10-18T02:41:42.688Z,20.9
2022-10-18T02:42:45.156Z,20.9
2022-10-18T02:43:58.205Z,20.9
2022-10-18T02:45:10.601Z,20.89
2022-10-18T02:46:23.731Z,20.9
2022-10-18T02:47:26.301Z,20.9
2022-10-18T02:48:39.684Z,20.9
2022-10-18T02:49:52.144Z,20.88
2022-10-18T02:50:55.708Z,20.89
2022-10-18T02:52:08.094Z,20.92
2022-10-18T02:53:21.198Z,20.93
2022-10-18T02:54:23.694Z,20.9
2022-10-18T02:55:36.695Z,20.88
2022-10-18T02:56:49.099Z,20.89
2022-10-18T02:58:02.208Z,20.88
2022-10-18T02:59:04.699Z,20.89
2022-10-18T03:00:17.694Z,20.86
2022-10-18T03:01:30.221Z,20.89
2022-10-18T03:02:43.692Z,20.88
2022-10-18T03:03:46.194Z,20.89
2022-10-18T03:04:59.307Z,20.88
2022-10-18T03:06:11.720Z,20.88
2022-10-18T03:07:15.208Z,20.88
2022-10-18T03:08:27.612Z,20.89
2022-10-18T03:09:40.704Z,20.88
2022-10-18T03:10:43.248Z,20.85
2022-10-18T03:11:56.202Z,20.86
2022-10-18T03:13:08.578Z,20.85
2022-10-18T03:14:21.692Z,20.85
2022-10-18T03:15:24.258Z,20.85
2022-10-18T03:16:37.985Z,20.85
2022-10-18T03:17:50.349Z,20.85
2022-10-18T03:18:53.678Z,20.88
2022-10-18T03:20:06.134Z,20.85
2022-10-18T03:21:19.173Z,20.89
2022-10-18T03:22:31.885Z,20.86
2022-10-18T03:23:35.267Z,20.86
2022-10-18T03:24:47.767Z,20.85
2022-10-18T03:26:01.221Z,20.85
2022-10-18T03:27:03.757Z,20.83
2022-10-18T03:28:16.680Z,20.86
2022-10-18T03:29:29.266Z,20.85
2022-10-18T03:30:42.716Z,20.88
2022-10-18T03:31:45.224Z,20.85
2022-10-18T03:32:58.254Z,20.85
2022-10-18T03:34:10.656Z,20.83
2022-10-18T03:35:14.230Z,20.86
2022-10-18T03:36:26.652Z,20.83
2022-10-18T03:37:39.710Z,20.86
2022-10-18T03:38:52.162Z,20.85
2022-10-18T03:39:55.195Z,20.83
2022-10-18T03:41:07.598Z,20.85
2022-10-18T03:42:20.678Z,20.82
2022-10-18T03:43:23.177Z,20.83
2022-10-18T03:44:36.232Z,20.82
2022-10-18T03:45:48.690Z,20.85
2022-10-18T03:47:02.248Z,20.83
2022-10-18T03:48:04.749Z,20.82
2022-10-18T03:49:18.347Z,20.8
2022-10-18T03:50:32.078Z,20.82
2022-10-18T03:51:35.503Z,20.83
2022-10-18T03:52:47.900Z,20.82
2022-10-18T03:54:01.378Z,20.82
2022-10-18T03:55:03.859Z,20.8
2022-10-18T03:56:17.361Z,20.83
2022-10-18T03:57:29.963Z,20.83
2022-10-18T03:59:46.417Z,20.83
2022-10-18T04:00:59.714Z,20.82
2022-10-18T04:02:12.111Z,20.82
2022-10-18T04:03:15.228Z,20.83
2022-10-18T04:04:27.631Z,20.82
2022-10-18T04:05:40.696Z,20.82
2022-10-18T04:06:43.336Z,20.83
2022-10-18T04:07:57.200Z,20.83
2022-10-18T04:09:10.355Z,20.83
2022-10-18T04:10:13.732Z,20.86
2022-10-18T04:11:26.143Z,20.85
2022-10-18T04:12:39.198Z,20.79
2022-10-18T04:14:11.478Z,20.82
2022-10-18T04:14:55.722Z,20.82
2022-10-18T04:16:08.329Z,20.86
2022-10-18T04:17:21.714Z,20.86
2022-10-18T04:18:24.188Z,20.85
2022-10-18T04:19:37.229Z,20.88
2022-10-18T04:20:49.632Z,20.86
2022-10-18T04:22:02.724Z,20.86
2022-10-18T04:23:05.208Z,20.86
2022-10-18T04:24:18.238Z,20.86
2022-10-18T04:25:30.682Z,20.85
2022-10-18T04:26:34.197Z,20.89
2022-10-18T04:28:06.454Z,20.89
2022-10-18T04:28:59.839Z,20.88
2022-10-18T04:30:02.470Z,20.86
2022-10-18T04:31:15.703Z,20.88
2022-10-18T04:32:28.091Z,20.9
2022-10-18T04:33:41.233Z,20.92
2022-10-18T04:35:56.733Z,20.89
2022-10-18T04:37:09.133Z,20.9
2022-10-18T04:38:22.230Z,20.9
2022-10-18T04:39:24.713Z,20.89
2022-10-18T04:40:37.716Z,20.89
2022-10-18T04:41:50.123Z,20.9
2022-10-18T04:42:53.217Z,20.89
2022-10-18T04:44:05.614Z,20.88
2022-10-18T04:45:18.706Z,20.89
2022-10-18T04:46:31.170Z,20.89
2022-10-18T04:47:35.024Z,20.89
2022-10-18T04:48:47.561Z,20.9
2022-10-18T04:50:00.722Z,20.89
2022-10-18T04:51:03.218Z,20.89
2022-10-18T04:52:16.212Z,20.89
2022-10-18T04:53:28.795Z,20.89
2022-10-18T04:54:42.260Z,20.89
2022-10-18T04:56:04.619Z,20.89
2022-10-18T04:56:58.207Z,20.88
2022-10-18T04:58:10.609Z,20.89
2022-10-18T04:59:13.718Z,20.89
2022-10-18T05:00:26.104Z,20.9
2022-10-18T05:02:29.507Z,20.96
2022-10-18T05:03:12.522Z,21.03
2022-10-18T05:03:55.127Z,21.16
2022-10-18T05:05:10.416Z,21.29
2022-10-18T05:06:15.766Z,21.39
2022-10-18T05:07:28.702Z,21.53
2022-10-18T05:08:41.090Z,21.67
2022-10-18T05:09:44.218Z,21.74
2022-10-18T05:10:56.674Z,21.84
2022-10-18T05:12:09.775Z,21.94
2022-10-18T05:14:21.478Z,21.99
2022-10-18T05:14:24.575Z,22.08
2022-10-18T05:15:36.726Z,22.13
2022-10-18T05:16:49.715Z,22.23
2022-10-18T05:17:52.108Z,22.3
2022-10-18T05:19:14.752Z,22.35
2022-10-18T05:20:17.045Z,22.41
2022-10-18T05:21:29.761Z,22.43
2022-10-18T05:22:32.199Z,22.48
2022-10-18T05:23:55.246Z,22.49
2022-10-18T05:24:57.592Z,22.43
2022-10-18T05:26:10.736Z,22.38
2022-10-18T05:27:13.070Z,22.28
2022-10-18T05:28:39.267Z,22.23
2022-10-18T05:29:32.810Z,22.15
2022-10-18T05:30:45.755Z,22.06
2022-10-18T05:31:58.075Z,21.99
2022-10-18T05:33:01.209Z,21.91
2022-10-18T05:34:13.505Z,21.87
2022-10-18T05:35:26.744Z,21.78
2022-10-18T05:36:39.036Z,21.74
2022-10-18T05:37:42.232Z,21.67
2022-10-18T05:38:54.552Z,21.62
2022-10-18T05:40:07.729Z,21.58
2022-10-18T05:41:10.173Z,21.53
2022-10-18T05:42:23.214Z,21.5
2022-10-18T05:43:35.581Z,21.44
2022-10-18T05:44:48.762Z,21.43
2022-10-18T05:45:51.187Z,21.39
2022-10-18T05:47:04.757Z,21.36
2022-10-18T05:48:17.097Z,21.34
2022-10-18T05:49:20.254Z,21.3
2022-10-18T05:50:36.632Z,21.3
2022-10-18T05:51:42.773Z,21.3
2022-10-18T05:52:56.980Z,21.26
2022-10-18T05:54:02.768Z,21.24
2022-10-18T05:55:15.109Z,21.24
2022-10-18T05:56:28.305Z,21.24
2022-10-18T05:57:31.123Z,21.24
2022-10-18T05:58:44.762Z,21.24
2022-10-18T05:59:57.190Z,21.2
2022-10-18T06:01:00.240Z,21.23
2022-10-18T06:02:12.668Z,21.21
2022-10-18T06:03:35.765Z,21.2
2022-10-18T06:04:38.218Z,21.2
2022-10-18T06:05:41.740Z,21.19
2022-10-18T06:06:54.082Z,21.21
2022-10-18T06:08:10.216Z,21.2
2022-10-18T06:09:13.065Z,21.2
2022-10-18T06:10:26.328Z,21.19
2022-10-18T06:11:28.856Z,21.19
2022-10-18T06:12:42.225Z,21.19
2022-10-18T06:13:54.561Z,21.19
2022-10-18T06:15:07.755Z,21.17
2022-10-18T06:16:10.225Z,21.2
2022-10-18T06:17:23.227Z,21.19
2022-10-18T06:18:35.609Z,21.17
2022-10-18T06:19:38.780Z,21.19
2022-10-18T06:20:51.159Z,21.17
2022-10-18T06:22:04.232Z,21.17
2022-10-18T06:23:16.601Z,21.16
2022-10-18T06:24:19.725Z,21.17
2022-10-18T06:25:32.108Z,21.16
2022-10-18T06:26:45.281Z,21.17
2022-10-18T06:27:47.726Z,21.17
2022-10-18T06:29:00.804Z,21.16
2022-10-18T06:30:13.323Z,21.16
2022-10-18T06:31:26.261Z,21.14
2022-10-18T06:32:28.712Z,21.16
2022-10-18T06:33:41.731Z,21.16
2022-10-18T06:34:54.087Z,21.16
2022-10-18T06:36:07.259Z,21.2
2022-10-18T06:37:09.666Z,21.26
2022-10-18T06:38:22.754Z,21.37
2022-10-18T06:39:35.070Z,21.46
2022-10-18T06:40:38.333Z,21.58
2022-10-18T06:41:50.600Z,21.7
2022-10-18T06:43:19.473Z,21.78
2022-10-18T06:44:12.959Z,21.84
2022-10-18T06:45:25.771Z,21.95
2022-10-18T06:46:28.117Z,22.03
2022-10-18T06:47:41.266Z,22.08
2022-10-18T06:48:53.396Z,22.15
2022-10-18T06:50:06.230Z,22.19
2022-10-18T06:51:08.487Z,22.23
2022-10-18T06:52:21.293Z,22.29
2022-10-18T06:53:33.457Z,22.3
2022-10-18T06:54:46.269Z,22.35
2022-10-18T06:55:48.548Z,22.38
2022-10-18T06:57:01.756Z,22.39
2022-10-18T06:58:13.997Z,22.45
2022-10-18T06:59:17.340Z,22.46
2022-10-18T07:00:29.535Z,22.49
2022-10-18T07:01:42.327Z,22.49
2022-10-18T07:02:54.446Z,22.53
2022-10-18T07:03:57.263Z,22.53
2022-10-18T07:05:09.495Z,22.52
2022-10-18T07:06:22.275Z,22.53
2022-10-18T07:07:35.114Z,22.54
2022-10-18T07:08:38.269Z,22.53
2022-10-18T07:09:50.356Z,22.5
2022-10-18T07:11:03.286Z,22.57
2022-10-18T07:12:05.590Z,22.53
2022-10-18T07:13:32.063Z,22.54
2022-10-18T07:14:28.868Z,22.56
2022-10-18T07:15:42.265Z,22.57
2022-10-18T07:16:44.524Z,22.63
2022-10-18T07:17:57.270Z,22.62
2022-10-18T07:19:09.406Z,22.64
2022-10-18T07:20:22.381Z,22.66
2022-10-18T07:21:24.674Z,22.64
2022-10-18T07:22:37.766Z,22.63
2022-10-18T07:23:49.900Z,22.62
2022-10-18T07:25:03.280Z,22.6
2022-10-18T07:26:05.477Z,22.6
2022-10-18T07:27:18.283Z,22.59
2022-10-18T07:28:30.543Z,22.59
2022-10-18T07:29:33.764Z,22.59
2022-10-18T07:30:45.930Z,22.59
2022-10-18T07:31:58.754Z,22.57
2022-10-18T07:33:10.834Z,22.6
2022-10-18T07:34:23.816Z,22.6
2022-10-18T07:35:26.028Z,22.6
2022-10-18T07:36:38.781Z,22.62
2022-10-18T07:37:50.920Z,22.66
2022-10-18T07:38:53.765Z,22.72
2022-10-18T07:40:05.898Z,22.69
2022-10-18T07:41:18.850Z,22.74
2022-10-18T07:42:21.047Z,22.79
2022-10-18T07:43:33.749Z,22.83
2022-10-18T07:44:45.885Z,22.86
2022-10-18T07:45:58.760Z,22.91
2022-10-18T07:47:00.943Z,22.94
2022-10-18T07:48:13.771Z,22.97
2022-10-18T07:49:25.823Z,23.01
2022-10-18T07:50:38.771Z,23.03
2022-10-18T07:51:41.033Z,23.08
2022-10-18T07:52:53.782Z,23.1
2022-10-18T07:54:05.902Z,23.13
2022-10-18T07:55:18.785Z,23.17
2022-10-18T07:56:21.422Z,23.17
2022-10-18T07:57:35.227Z,23.21
2022-10-18T07:58:47.674Z,23.23
2022-10-18T07:59:50.819Z,23.25
2022-10-18T08:01:02.924Z,23.28
2022-10-18T08:02:15.805Z,23.28
2022-10-18T08:03:27.846Z,23.31
2022-10-18T08:04:30.793Z,23.37
2022-10-18T08:05:42.872Z,23.37
2022-10-18T08:06:55.793Z,23.38
2022-10-18T08:08:08.172Z,23.42
2022-10-18T08:09:11.785Z,23.42
2022-10-18T08:10:23.810Z,23.44
2022-10-18T08:11:36.814Z,23.44
2022-10-18T08:12:38.967Z,23.47
2022-10-18T08:13:51.782Z,23.49
2022-10-18T08:15:03.852Z,23.51
2022-10-18T08:16:16.799Z,23.54
2022-10-18T08:17:19.003Z,23.55
2022-10-18T08:18:31.811Z,23.56
2022-10-18T08:19:52.891Z,23.59
2022-10-18T08:20:48.309Z,23.61
2022-10-18T08:22:00.344Z,23.62
2022-10-18T08:23:13.297Z,23.64
2022-10-18T08:24:25.337Z,23.66
2022-10-18T08:25:28.365Z,23.68
2022-10-18T08:26:40.569Z,23.68
2022-10-18T08:27:53.310Z,23.71
2022-10-18T08:29:10.231Z,23.68
2022-10-18T08:30:13.787Z,23.74
2022-10-18T08:31:15.963Z,23.72
2022-10-18T08:32:28.813Z,23.76
2022-10-18T08:33:40.664Z,23.76
2022-10-18T08:34:53.320Z,23.79
2022-10-18T08:35:55.351Z,23.81
2022-10-18T08:37:08.300Z,23.81
2022-10-18T08:38:20.338Z,23.82
2022-10-18T08:39:33.277Z,23.83
2022-10-18T08:40:35.484Z,23.86
2022-10-18T08:41:48.290Z,23.85
2022-10-18T08:43:00.316Z,23.89
2022-10-18T08:44:13.311Z,23.89
2022-10-18T08:45:30.077Z,23.9
2022-10-18T08:46:30.778Z,23.92
2022-10-18T08:47:33.373Z,23.95
2022-10-18T08:48:46.834Z,23.95
2022-10-18T08:49:58.787Z,23.96
2022-10-18T08:51:11.788Z,23.96
2022-10-18T08:52:13.975Z,23.98
2022-10-18T08:53:26.796Z,24.02
2022-10-18T08:54:38.805Z,24.0
2022-10-18T08:55:51.815Z,24.0
2022-10-18T08:56:53.977Z,24.02
2022-10-18T08:58:06.831Z,24.07
2022-10-18T08:59:22.051Z,24.06
2022-10-18T09:00:27.795Z,24.05
2022-10-18T09:01:39.874Z,24.1
2022-10-18T09:02:43.330Z,24.13
2022-10-18T09:03:55.271Z,24.16
2022-10-18T09:05:08.278Z,24.19
2022-10-18T09:06:10.445Z,24.17
2022-10-18T09:07:23.328Z,24.19
2022-10-18T09:08:35.338Z,24.23
2022-10-18T09:09:48.322Z,24.26
2022-10-18T09:10:50.444Z,24.3
2022-10-18T09:12:03.309Z,24.32
2022-10-18T09:13:15.279Z,24.3
2022-10-18T09:14:28.369Z,24.36
2022-10-18T09:15:30.510Z,24.36
2022-10-18T09:16:43.298Z,24.39
2022-10-18T09:17:55.327Z,24.41
2022-10-18T09:19:08.287Z,24.41
2022-10-18T09:20:10.412Z,24.41
2022-10-18T09:21:23.332Z,24.44
2022-10-18T09:22:35.687Z,24.41
2022-10-18T09:23:39.602Z,24.41
2022-10-18T09:24:52.247Z,24.41
2022-10-18T09:25:58.833Z,24.41
2022-10-18T09:27:11.688Z,24.44
2022-10-18T09:28:24.537Z,24.43
2022-10-18T09:29:26.933Z,24.44
2022-10-18T09:30:39.814Z,24.47
2022-10-18T09:31:51.806Z,24.47
2022-10-18T09:33:04.810Z,24.49
2022-10-18T09:34:06.934Z,24.51
2022-10-18T09:35:19.912Z,24.51
2022-10-18T09:36:31.897Z,24.57
2022-10-18T09:37:44.908Z,24.6
2022-10-18T09:38:46.982Z,24.61
2022-10-18T09:39:59.806Z,24.65
2022-10-18T09:41:11.808Z,24.63
2022-10-18T09:42:24.316Z,24.68
2022-10-18T09:43:26.517Z,24.71
2022-10-18T09:44:39.318Z,24.72
2022-10-18T09:45:51.232Z,24.74
2022-10-18T09:47:03.811Z,24.77
2022-10-18T09:48:05.948Z,24.77
2022-10-18T09:49:18.852Z,24.8
2022-10-18T09:50:30.806Z,24.81
2022-10-18T09:51:33.855Z,24.81
2022-10-18T09:52:45.808Z,24.88
2022-10-18T09:53:58.383Z,24.88
2022-10-18T09:55:10.333Z,24.9
2022-10-18T09:56:13.350Z,24.92
2022-10-18T09:57:25.278Z,24.97
2022-10-18T09:58:37.853Z,24.97
2022-10-18T09:59:49.877Z,25.01
2022-10-18T10:00:52.818Z,25.02
2022-10-18T10:02:04.883Z,25.07
2022-10-18T10:03:17.859Z,25.08
2022-10-18T10:04:29.795Z,25.11
2022-10-18T10:05:32.825Z,25.11
2022-10-18T10:06:44.755Z,25.14
2022-10-18T10:07:57.313Z,25.16
2022-10-18T10:09:09.232Z,25.21
2022-10-18T10:10:11.851Z,25.22
2022-10-18T10:11:23.769Z,25.25
2022-10-18T10:12:36.441Z,25.26
2022-10-18T10:13:48.338Z,25.29
2022-10-18T10:14:51.333Z,25.29
2022-10-18T10:16:03.256Z,25.35
2022-10-18T10:17:15.824Z,25.33
2022-10-18T10:18:27.743Z,25.35
2022-10-18T10:19:30.837Z,25.36
2022-10-18T10:20:42.734Z,25.39
2022-10-18T10:21:55.439Z,25.43
2022-10-18T10:23:07.431Z,25.48
2022-10-18T10:24:10.376Z,25.49
2022-10-18T10:25:22.284Z,25.51
2022-10-18T10:26:34.885Z,25.56
2022-10-18T10:27:36.941Z,25.59
2022-10-18T10:28:49.901Z,25.6
2022-10-18T10:30:06.830Z,25.65
2022-10-18T10:31:09.834Z,25.66
2022-10-18T10:32:21.797Z,25.7
2022-10-18T10:33:34.333Z,25.73
2022-10-18T10:34:37.306Z,25.73
2022-10-18T10:35:53.843Z,25.76
2022-10-18T10:36:56.445Z,25.84
2022-10-18T10:38:09.320Z,25.84
2022-10-18T10:39:21.213Z,25.84
2022-10-18T10:40:33.840Z,25.89
2022-10-18T10:41:35.880Z,25.91
2022-10-18T10:42:48.339Z,25.93
2022-10-18T10:44:00.215Z,25.94
2022-10-18T10:45:12.832Z,26.01
2022-10-18T10:46:14.867Z,26.03
2022-10-18T10:47:27.327Z,26.06
2022-10-18T10:48:39.196Z,26.06
2022-10-18T10:49:51.852Z,26.09
2022-10-18T10:50:55.188Z,26.13
2022-10-18T10:52:15.429Z,26.14
2022-10-18T10:53:18.114Z,26.17
2022-10-18T10:54:30.845Z,26.21
2022-10-18T10:55:34.845Z,26.23
2022-10-18T10:56:48.327Z,26.25
2022-10-18T10:57:50.347Z,26.27
2022-10-18T10:59:02.903Z,26.28
2022-10-18T11:00:14.851Z,26.34
2022-10-18T11:01:27.355Z,26.37
2022-10-18T11:02:29.580Z,26.37
2022-10-18T11:03:42.433Z,26.4
2022-10-18T11:04:54.396Z,26.44
2022-10-18T11:06:06.858Z,26.45
2022-10-18T11:07:08.851Z,26.46
2022-10-18T11:08:23.932Z,26.48
2022-10-18T11:09:35.982Z,26.52
2022-10-18T11:10:38.871Z,26.52
2022-10-18T11:12:00.291Z,26.55
2022-10-18T11:13:02.850Z,26.57
2022-10-18T11:14:25.220Z,26.58
2022-10-18T11:15:18.852Z,26.64
2022-10-18T11:16:30.667Z,26.64
2022-10-18T11:17:43.425Z,26.65
2022-10-18T11:18:45.394Z,26.69
2022-10-18T11:19:57.831Z,26.72
2022-10-18T11:21:09.654Z,26.74
2022-10-18T11:22:22.351Z,26.74
2022-10-18T11:23:24.406Z,26.74
2022-10-18T11:24:36.875Z,26.72
2022-10-18T11:25:48.788Z,26.68
2022-10-18T11:27:01.491Z,26.64
2022-10-18T11:28:03.649Z,26.6
2022-10-18T11:29:16.355Z,26.57
2022-10-18T11:30:28.162Z,26.51
2022-10-18T11:31:40.857Z,26.45
2022-10-18T11:32:42.796Z,26.44
2022-10-18T11:34:08.874Z,26.38
2022-10-18T11:35:01.996Z,26.38
2022-10-18T11:36:14.393Z,26.37
2022-10-18T11:37:31.069Z,26.35
2022-10-18T11:38:35.372Z,26.33
2022-10-18T11:39:47.210Z,26.3
2022-10-18T11:40:49.910Z,26.27
2022-10-18T11:42:01.757Z,26.25
2022-10-18T11:43:14.377Z,26.21
2022-10-18T11:44:26.250Z,26.18
2022-10-18T11:45:31.771Z,26.16
2022-10-18T11:47:13.343Z,26.16
2022-10-18T11:47:56.406Z,26.14
2022-10-18T11:48:58.456Z,26.13
2022-10-18T11:50:11.421Z,26.13
2022-10-18T11:51:34.040Z,26.14
2022-10-18T11:52:31.880Z,26.16
2022-10-18T11:53:47.144Z,26.17
2022-10-18T11:54:52.364Z,26.14
2022-10-18T11:55:54.409Z,26.14
2022-10-18T11:57:07.422Z,26.13
2022-10-18T11:58:19.298Z,26.11
2022-10-18T11:59:32.370Z,26.09
2022-10-18T12:00:34.436Z,26.04
2022-10-18T12:01:46.876Z,25.98
2022-10-18T12:02:58.801Z,25.95
2022-10-18T12:04:11.371Z,25.97
2022-10-18T12:05:24.762Z,25.91
2022-10-18T12:06:27.862Z,25.93
2022-10-18T12:07:39.743Z,25.93
2022-10-18T12:08:42.369Z,25.9
2022-10-18T12:09:54.272Z,25.84
2022-10-18T12:11:07.093Z,25.83
2022-10-18T12:12:19.066Z,25.8
2022-10-18T12:13:21.878Z,25.77
2022-10-18T12:14:33.789Z,25.74
2022-10-18T12:15:46.394Z,25.73
2022-10-18T12:17:20.235Z,25.73
2022-10-18T12:18:01.884Z,25.74
2022-10-18T12:19:13.798Z,25.73
2022-10-18T12:20:26.382Z,25.72
2022-10-18T12:21:38.281Z,25.74
2022-10-18T12:22:41.391Z,25.73
2022-10-18T12:23:53.283Z,25.7
2022-10-18T12:25:05.894Z,25.7
2022-10-18T12:26:17.859Z,25.72
2022-10-18T12:27:20.879Z,25.7
2022-10-18T12:28:32.789Z,25.7
2022-10-18T12:29:48.040Z,25.72
2022-10-18T12:30:52.453Z,25.72
2022-10-18T12:32:05.396Z,25.73
2022-10-18T12:33:23.525Z,25.73
2022-10-18T12:34:21.385Z,25.73
2022-10-18T12:35:33.268Z,25.73
2022-10-18T12:36:45.889Z,25.73
2022-10-18T12:37:48.028Z,25.73
2022-10-18T12:39:00.872Z,25.74
2022-10-18T12:40:16.776Z,25.74
2022-10-18T12:41:21.373Z,25.73
2022-10-18T12:42:33.278Z,25.7
2022-10-18T12:43:35.880Z,25.73
2022-10-18T12:45:07.505Z,25.69
2022-10-18T12:46:00.396Z,25.7
2022-10-18T12:47:12.291Z,25.66
2022-10-18T12:48:15.433Z,25.66
2022-10-18T12:49:27.340Z,25.69
2022-10-18T12:50:39.915Z,25.66
2022-10-18T12:51:51.910Z,25.65
2022-10-18T12:52:54.888Z,25.65
2022-10-18T12:54:06.729Z,25.67
2022-10-18T12:55:19.409Z,25.67
2022-10-18T12:56:31.334Z,25.67
2022-10-18T12:57:34.609Z,25.67
2022-10-18T12:58:46.661Z,25.7
2022-10-18T12:59:59.405Z,25.7
2022-10-18T13:01:01.431Z,25.69
2022-10-18T13:02:13.892Z,25.69
2022-10-18T13:03:25.791Z,25.67
2022-10-18T13:04:38.413Z,25.67
2022-10-18T13:05:48.795Z,25.66
2022-10-18T13:06:55.417Z,25.66
2022-10-18T13:08:28.283Z,25.66
2022-10-18T13:09:11.396Z,25.67
2022-10-18T13:10:23.284Z,25.69
2022-10-18T13:11:35.899Z,25.69
2022-10-18T13:12:47.951Z,25.72
2022-10-18T13:13:50.954Z,25.72
2022-10-18T13:15:24.047Z,25.72
2022-10-18T13:16:08.383Z,25.76
2022-10-18T13:17:20.297Z,25.76
2022-10-18T13:18:32.889Z,25.76
2022-10-18T13:19:44.785Z,25.76
2022-10-18T13:20:47.405Z,25.74
2022-10-18T13:22:09.188Z,25.7
2022-10-18T13:23:12.469Z,25.72
2022-10-18T13:24:24.477Z,25.73
2022-10-18T13:25:27.455Z,25.74
2022-10-18T13:26:39.386Z,25.74
2022-10-18T13:27:51.905Z,25.72
2022-10-18T13:29:33.533Z,25.7
2022-10-18T13:30:07.072Z,25.69
2022-10-18T13:31:18.897Z,25.7
2022-10-18T13:32:31.651Z,25.69
2022-10-18T13:33:33.877Z,25.69
2022-10-18T13:34:46.428Z,25.67
2022-10-18T13:35:58.356Z,25.69
2022-10-18T13:37:10.941Z,25.65
2022-10-18T13:38:12.968Z,25.65
2022-10-18T13:39:25.904Z,25.63
2022-10-18T13:40:37.895Z,25.66
2022-10-18T13:41:53.735Z,25.67
2022-10-18T13:42:57.299Z,25.69
2022-10-18T13:44:09.920Z,25.7
2022-10-18T13:45:12.023Z,25.69
2022-10-18T13:47:14.389Z,25.73
2022-10-18T13:47:37.175Z,25.73
2022-10-18T13:48:49.153Z,25.73
2022-10-18T13:49:54.871Z,25.73
2022-10-18T13:51:30.385Z,25.77
2022-10-18T13:52:13.701Z,25.76
2022-10-18T13:53:25.646Z,25.77
2022-10-18T13:54:38.454Z,25.82
2022-10-18T13:55:40.531Z,25.8
2022-10-18T13:56:53.434Z,25.82
2022-10-18T13:58:05.286Z,25.82
2022-10-18T13:59:17.947Z,25.8
2022-10-18T14:00:20.009Z,25.82
2022-10-18T14:01:32.981Z,25.8
2022-10-18T14:02:51.496Z,25.77
2022-10-18T14:03:58.549Z,25.76
2022-10-18T14:05:16.634Z,25.74
2022-10-18T14:06:16.424Z,25.76
2022-10-18T14:07:18.534Z,25.73
2022-10-18T14:08:50.950Z,25.76
2022-10-18T14:09:45.147Z,25.72
2022-10-18T14:11:08.919Z,25.77
2022-10-18T14:12:01.305Z,25.8
2022-10-18T14:13:14.042Z,25.84
2022-10-18T14:14:45.691Z,25.87
2022-10-18T14:15:28.908Z,25.87
2022-10-18T14:16:40.997Z,25.94
2022-10-18T14:17:53.427Z,25.97
2022-10-18T14:19:05.336Z,25.97
2022-10-18T14:20:07.946Z,25.97
2022-10-18T14:21:21.766Z,25.95
2022-10-18T14:22:35.310Z,25.97
2022-10-18T14:23:37.590Z,25.98
2022-10-18T14:24:50.451Z,26.01
2022-10-18T14:26:02.352Z,26.0
2022-10-18T14:27:05.017Z,26.01
2022-10-18T14:28:16.927Z,26.0
2022-10-18T14:29:29.477Z,26.04
2022-10-18T14:30:41.469Z,26.07
2022-10-18T14:31:44.438Z,26.07
2022-10-18T14:32:56.322Z,26.09
2022-10-18T14:34:08.976Z,26.14
2022-10-18T14:35:32.027Z,26.13
2022-10-18T14:36:25.433Z,26.16
2022-10-18T14:37:37.295Z,26.16
2022-10-18T14:38:49.948Z,26.18
2022-10-18T14:39:51.997Z,26.2
2022-10-18T14:41:04.433Z,26.21
2022-10-18T14:42:16.281Z,26.23
2022-10-18T14:43:28.922Z,26.24
2022-10-18T14:44:54.389Z,26.24
2022-10-18T14:45:48.941Z,26.25
2022-10-18T14:46:50.880Z,26.3
2022-10-18T14:48:03.417Z,26.33
2022-10-18T14:49:15.249Z,26.31
2022-10-18T14:50:30.604Z,26.35
2022-10-18T14:51:32.875Z,26.35
2022-10-18T14:52:45.524Z,26.33
2022-10-18T14:53:57.356Z,26.35
2022-10-18T14:54:59.958Z,26.33
2022-10-18T14:56:11.786Z,26.35
2022-10-18T14:57:24.430Z,26.38
2022-10-18T14:58:36.219Z,26.35
2022-10-18T14:59:38.964Z,26.37
2022-10-18T15:00:50.887Z,26.38
2022-10-18T15:02:03.429Z,26.41
2022-10-18T15:03:15.294Z,26.41
2022-10-18T15:04:17.984Z,26.41
2022-10-18T15:05:29.892Z,26.42
2022-10-18T15:06:42.451Z,26.42